NCAR-RAP Real-Time Weather Data

Output produced by METARs form (08 May 2021  17:16 UTC)
found at http://weather.rap.ucar.edu/surface/
 
KCRW 081654Z 28007G19KT 200V310 10SM BKN055 13/01 A3010 RMK AO2 SLP191 T01280011
KCRW 081554Z 29006G16KT 10SM FEW039 BKN050 11/01 A3010 RMK AO2 SLP192 T01060011
KCRW 081454Z VRB05KT 10SM SCT029 BKN035 11/04 A3009 RMK AO2 SLP191 T01060039 53012
KCRW 081354Z 31006KT 10SM BKN023 BKN028 09/03 A3008 RMK AO2 SLP186 T00890033
KCRW 081328Z 29009KT 10SM BKN017 BKN025 07/04 A3008 RMK AO2 T00720039
KCRW 081254Z VRB05KT 10SM SCT015 08/04 A3007 RMK AO2 SLP182 T00780039
KCRW 081154Z VRB03KT 10SM SCT019 07/03 A3006 RMK AO2 SLP178 70011 T00670028 10083 20061 53031
KCRW 081054Z VRB04KT 10SM FEW013 SCT029 07/04 A3002 RMK AO2 SLP165 T00670044
KCRW 081047Z 31006KT 10SM FEW013 SCT029 07/04 A3002 RMK AO2 T00670044
KCRW 081024Z 30008KT 10SM SCT013 BKN029 07/05 A3000 RMK AO2 T00720050
KCRW 080954Z 29005KT 10SM BKN009 OVC020 08/06 A2999 RMK AO2 SLP153 T00780061
KCRW 080854Z 27007KT 10SM BKN009 OVC019 08/07 A2996 RMK AO2 SLP145 T00830072 51006
KCRW 080850Z 26005KT 10SM BKN009 OVC019 08/07 A2996 RMK AO2
KCRW 080754Z 24007KT 10SM OVC021 08/07 A2995 RMK AO2 SLP141 T00830072
KCRW 080735Z 23008KT 10SM BKN022 OVC030 08/07 A2995 RMK AO2 T00830072
KCRW 080654Z 25005KT 10SM SCT030 BKN037 OVC085 08/07 A2994 RMK AO2 SLP139 T00830072
KCRW 080554Z 25007KT 10SM BKN044 OVC055 08/07 A2995 RMK AO2 RAE20 SLP142 P0004 60011 T00830072 10133 20083 57008
KCRW 080454Z 23011G17KT 10SM -RA SCT037 OVC050 09/07 A2997 RMK AO2 RAB41 SLP147 P0000 T00890072 401610078
KCRW 080354Z 21007KT 9SM SCT038 BKN055 BKN090 09/07 A2996 RMK AO2 RAE32 SLP145 P0003 T00890072
KCRW 080254Z 29007G17KT 5SM RA BKN035 BKN049 OVC075 09/06 A2998 RMK AO2 RAB33 SLP151 P0004 60004 T00890061 53012
KCRW 080154Z 15003KT 10SM BKN090 09/04 A2994 RMK AO2 SLP137 T00940044
KCRW 080054Z 21003KT 10SM SCT075 BKN090 12/03 A2993 RMK AO2 SLP136 T01170033
KCRW 072354Z 29004KT 10SM SCT075 SCT090 13/01 A2994 RMK AO2 SLP138 T01330006 10161 20128 58008
KCRW 072254Z 26008G18KT 10SM SCT075 SCT100 15/M01 A2995 RMK AO2 SLP142 T01501006
KCRW 072154Z 32007G16KT 280V340 10SM FEW070 SCT085 SCT100 16/00 A2996 RMK AO2 SLP143 T01610000
KCRW 072054Z 31014G21KT 10SM SCT065 BKN090 14/M01 A2997 RMK AO2 SLP147 T01441011 58007
KCRW 071954Z 31015G21KT 10SM SCT060 BKN090 14/00 A2998 RMK AO2 SLP150 T01440000
KCRW 071854Z 30011G19KT 10SM SCT045 BKN080 13/01 A2999 RMK AO2 SLP155 T01330011
KCRW 071754Z 30013G23KT 10SM SCT042 BKN060 13/02 A2999 RMK AO2 SLP155 60000 T01280022 10139 20089 51007 $
KCRW 071654Z 30011G19KT 10SM BKN032 BKN060 13/03 A2999 RMK AO2 SLP154 T01280033
KCRW 071554Z VRB05KT 10SM BKN021 BKN044 11/07 A2998 RMK AO2 RAB1459E21 SLP152 P0000 T01060067
KCRW 071454Z 30007KT 270V330 10SM BKN018 OVC030 10/07 A2997 RMK AO2 SLP148 60000 T01000067 53013
KCRW 071426Z 30011G16KT 270V330 10SM BKN015 OVC028 10/07 A2996 RMK AO2 T01000067
KCRW 071354Z 31009G17KT 260V340 10SM BKN014 OVC025 10/07 A2995 RMK AO2 SLP141 T01000072
KCRW 071337Z 29010G18KT 250V320 10SM BKN012 OVC025 09/07 A2994 RMK AO2 T00940067
KCRW 071254Z 27006G17KT 7SM BKN008 OVC015 09/08 A2993 RMK AO2 RAE1157 SLP136 VLY FG P0000 T00940083
KCRW 071239Z 27008KT 6SM BKN005 OVC012 09/08 A2993 RMK AO2 RAE1157 VLY FG P0000 T00940083
KCRW 071154Z 24005KT 4SM -RA BR FEW000 OVC004 09/08 A2993 RMK AO2 SLP132 FG FEW000 P0004 60029 70029 T00890083 10089 20078 53008
KCRW 071054Z 26005KT 4SM -RA BR FEW000 BKN004 OVC014 08/08 A2991 RMK AO2 SLP128 FG FEW000 P0014 T00830078
KCRW 071028Z 23007KT 4SM RA BR FEW000 BKN009 OVC026 08/08 A2990 RMK AO2 FG FEW000 P0008 T00830078
KCRW 071011Z 20007KT 4SM RA BR FEW000 SCT011 BKN026 08/08 A2990 RMK AO2 FG FEW000 P0004 T00830078
KCRW 070954Z 21007KT 5SM RA BR SCT022 BKN035 OVC048 08/07 A2990 RMK AO2 SLP124 P0005 T00830072
KCRW 070854Z 16004KT 7SM -RA OVC045 08/08 A2990 RMK AO2 SLP124 P0006 60006 T00830078 56010
KCRW 070754Z 23003KT 10SM -RA OVC055 09/07 A2991 RMK AO2 RAB36 SLP127 P0000 T00890067
KCRW 070654Z 00000KT 10SM FEW065 BKN080 OVC095 08/07 A2991 RMK AO2 SLP128 T00780072
KCRW 070554Z 00000KT 10SM SCT120 08/07 A2993 RMK AO2 SLP135 T00830067 10150 20083 56021
KCRW 070454Z 00000KT 10SM SCT110 08/07 A2996 RMK AO2 SLP144 T00830067 401670028
KCRW 070354Z 00000KT 10SM SCT110 08/07 A2997 RMK AO2 SLP149 T00830067
KCRW 070254Z 00000KT 10SM FEW110 09/07 A3000 RMK AO2 SLP157 T00890067 58001
KCRW 070154Z 15004KT 10SM CLR 09/07 A3000 RMK AO2 SLP161 T00940067
KCRW 070054Z 00000KT 10SM CLR 12/05 A2999 RMK AO2 SLP157 T01170050
KCRW 062354Z 31003KT 10SM CLR 15/03 A3000 RMK AO2 SLP158 T01500028 10167 20133 56006
KCRW 062254Z 26003KT 10SM CLR 15/03 A3000 RMK AO2 SLP159 T01500033
KCRW 062154Z 27006KT 10SM FEW050 16/03 A3001 RMK AO2 SLP161 T01610033
KCRW 062054Z VRB03KT 10SM SCT050 SCT100 16/03 A3002 RMK AO2 SLP164 T01560028 56023
KCRW 061954Z 20005KT 10SM SCT050 SCT150 14/03 A3003 RMK AO2 SLP170 T01440028
KCRW 061854Z 00000KT 10SM SCT048 BKN150 14/03 A3006 RMK AO2 SLP179 T01440033
KCRW 061754Z VRB03KT 10SM SCT045 BKN160 14/03 A3008 RMK AO2 SLP188 T01390028 10139 20039 58023